sensor_id;sensor_type;location;lat;lon;timestamp;P1;durP1;ratioP1;P2;durP2;ratioP2
38358;SDS011;42072;48.044;14.416;2022-12-18T00:01:29;86.60;;;35.83;;
38358;SDS011;42072;48.044;14.416;2022-12-18T00:04:01;87.13;;;34.83;;
38358;SDS011;42072;48.044;14.416;2022-12-18T00:06:30;95.93;;;37.85;;
38358;SDS011;42072;48.044;14.416;2022-12-18T00:08:59;101.93;;;40.72;;
38358;SDS011;42072;48.044;14.416;2022-12-18T00:11:29;125.88;;;46.17;;
38358;SDS011;42072;48.044;14.416;2022-12-18T00:13:58;98.53;;;40.35;;
38358;SDS011;42072;48.044;14.416;2022-12-18T00:16:26;106.85;;;42.92;;
38358;SDS011;42072;48.044;14.416;2022-12-18T00:18:55;99.93;;;39.30;;
38358;SDS011;42072;48.044;14.416;2022-12-18T00:21:24;91.38;;;36.45;;
38358;SDS011;42072;48.044;14.416;2022-12-18T00:23:52;90.38;;;36.88;;
38358;SDS011;42072;48.044;14.416;2022-12-18T00:26:27;86.25;;;35.53;;
38358;SDS011;42072;48.044;14.416;2022-12-18T00:29:00;79.68;;;34.47;;
38358;SDS011;42072;48.044;14.416;2022-12-18T00:31:31;93.70;;;34.35;;
38358;SDS011;42072;48.044;14.416;2022-12-18T00:33:59;86.95;;;35.38;;
38358;SDS011;42072;48.044;14.416;2022-12-18T00:36:28;82.30;;;32.13;;
38358;SDS011;42072;48.044;14.416;2022-12-18T00:38:58;80.10;;;33.08;;
38358;SDS011;42072;48.044;14.416;2022-12-18T00:41:27;70.00;;;30.08;;
38358;SDS011;42072;48.044;14.416;2022-12-18T00:44:13;67.88;;;29.92;;
38358;SDS011;42072;48.044;14.416;2022-12-18T00:46:43;66.50;;;28.52;;
38358;SDS011;42072;48.044;14.416;2022-12-18T00:49:10;67.30;;;29.83;;
38358;SDS011;42072;48.044;14.416;2022-12-18T00:51:40;73.20;;;30.20;;
38358;SDS011;42072;48.044;14.416;2022-12-18T00:54:10;69.22;;;30.02;;
38358;SDS011;42072;48.044;14.416;2022-12-18T00:56:38;71.50;;;30.23;;
38358;SDS011;42072;48.044;14.416;2022-12-18T00:59:14;73.40;;;30.98;;
38358;SDS011;42072;48.044;14.416;2022-12-18T01:01:41;70.47;;;30.63;;
38358;SDS011;42072;48.044;14.416;2022-12-18T01:04:09;73.22;;;32.05;;
38358;SDS011;42072;48.044;14.416;2022-12-18T01:06:36;71.28;;;32.13;;
38358;SDS011;42072;48.044;14.416;2022-12-18T01:09:04;75.50;;;29.48;;
38358;SDS011;42072;48.044;14.416;2022-12-18T01:11:31;67.05;;;28.45;;
38358;SDS011;42072;48.044;14.416;2022-12-18T01:13:59;73.32;;;30.02;;
38358;SDS011;42072;48.044;14.416;2022-12-18T01:16:26;78.05;;;31.05;;
38358;SDS011;42072;48.044;14.416;2022-12-18T01:18:54;76.20;;;31.40;;
38358;SDS011;42072;48.044;14.416;2022-12-18T01:21:21;68.68;;;29.35;;
38358;SDS011;42072;48.044;14.416;2022-12-18T01:23:53;66.75;;;30.27;;
38358;SDS011;42072;48.044;14.416;2022-12-18T01:26:22;66.28;;;28.40;;
38358;SDS011;42072;48.044;14.416;2022-12-18T01:28:51;63.95;;;28.15;;
38358;SDS011;42072;48.044;14.416;2022-12-18T01:31:21;61.15;;;26.00;;
38358;SDS011;42072;48.044;14.416;2022-12-18T01:33:51;61.55;;;26.20;;
38358;SDS011;42072;48.044;14.416;2022-12-18T01:36:20;61.80;;;26.85;;
38358;SDS011;42072;48.044;14.416;2022-12-18T01:38:49;58.58;;;24.90;;
38358;SDS011;42072;48.044;14.416;2022-12-18T01:41:19;65.95;;;27.40;;
38358;SDS011;42072;48.044;14.416;2022-12-18T01:43:55;57.05;;;24.95;;
38358;SDS011;42072;48.044;14.416;2022-12-18T01:46:24;41.92;;;18.33;;
38358;SDS011;42072;48.044;14.416;2022-12-18T01:48:55;59.60;;;25.38;;
38358;SDS011;42072;48.044;14.416;2022-12-18T01:51:26;62.20;;;25.08;;
38358;SDS011;42072;48.044;14.416;2022-12-18T01:53:56;60.83;;;25.50;;
38358;SDS011;42072;48.044;14.416;2022-12-18T01:56:24;66.43;;;25.67;;
38358;SDS011;42072;48.044;14.416;2022-12-18T01:59:04;59.15;;;24.38;;
38358;SDS011;42072;48.044;14.416;2022-12-18T02:01:35;44.38;;;19.08;;
38358;SDS011;42072;48.044;14.416;2022-12-18T02:04:20;60.38;;;23.17;;
38358;SDS011;42072;48.044;14.416;2022-12-18T02:10:03;58.78;;;23.50;;
38358;SDS011;42072;48.044;14.416;2022-12-18T02:18:38;51.10;;;22.23;;
38358;SDS011;42072;48.044;14.416;2022-12-18T02:21:20;60.30;;;22.92;;
38358;SDS011;42072;48.044;14.416;2022-12-18T02:26:55;56.08;;;23.27;;
38358;SDS011;42072;48.044;14.416;2022-12-18T02:29:34;60.85;;;23.98;;
38358;SDS011;42072;48.044;14.416;2022-12-18T02:32:10;57.67;;;23.33;;
38358;SDS011;42072;48.044;14.416;2022-12-18T02:34:41;55.33;;;23.57;;
38358;SDS011;42072;48.044;14.416;2022-12-18T02:37:12;58.00;;;24.10;;
38358;SDS011;42072;48.044;14.416;2022-12-18T02:39:42;62.67;;;23.40;;
38358;SDS011;42072;48.044;14.416;2022-12-18T02:42:12;51.63;;;22.55;;
38358;SDS011;42072;48.044;14.416;2022-12-18T02:44:44;59.72;;;23.85;;
38358;SDS011;42072;48.044;14.416;2022-12-18T02:47:17;45.15;;;20.00;;
38358;SDS011;42072;48.044;14.416;2022-12-18T03:00:33;51.90;;;22.00;;
38358;SDS011;42072;48.044;14.416;2022-12-18T03:08:36;48.40;;;21.75;;
38358;SDS011;42072;48.044;14.416;2022-12-18T03:11:11;52.28;;;23.98;;
38358;SDS011;42072;48.044;14.416;2022-12-18T03:13:47;54.08;;;22.95;;
38358;SDS011;42072;48.044;14.416;2022-12-18T03:16:24;48.58;;;22.00;;
38358;SDS011;42072;48.044;14.416;2022-12-18T03:18:57;36.72;;;17.80;;
38358;SDS011;42072;48.044;14.416;2022-12-18T03:21:33;50.60;;;22.73;;
38358;SDS011;42072;48.044;14.416;2022-12-18T03:24:22;55.03;;;21.15;;
38358;SDS011;42072;48.044;14.416;2022-12-18T03:26:54;46.50;;;21.83;;
38358;SDS011;42072;48.044;14.416;2022-12-18T03:29:26;46.75;;;21.52;;
38358;SDS011;42072;48.044;14.416;2022-12-18T03:32:11;45.78;;;20.52;;
38358;SDS011;42072;48.044;14.416;2022-12-18T03:34:45;47.28;;;21.88;;
38358;SDS011;42072;48.044;14.416;2022-12-18T03:37:15;44.88;;;20.10;;
38358;SDS011;42072;48.044;14.416;2022-12-18T03:39:42;42.83;;;19.80;;
38358;SDS011;42072;48.044;14.416;2022-12-18T03:42:22;44.17;;;20.40;;
38358;SDS011;42072;48.044;14.416;2022-12-18T03:50:28;44.20;;;19.98;;
38358;SDS011;42072;48.044;14.416;2022-12-18T03:53:24;42.10;;;19.27;;
38358;SDS011;42072;48.044;14.416;2022-12-18T03:56:01;41.60;;;18.90;;
38358;SDS011;42072;48.044;14.416;2022-12-18T03:58:31;42.70;;;19.75;;
38358;SDS011;42072;48.044;14.416;2022-12-18T04:01:01;40.88;;;19.23;;
38358;SDS011;42072;48.044;14.416;2022-12-18T04:03:32;42.83;;;20.25;;
38358;SDS011;42072;48.044;14.416;2022-12-18T04:06:02;42.35;;;19.55;;
38358;SDS011;42072;48.044;14.416;2022-12-18T04:08:31;41.45;;;19.15;;
38358;SDS011;42072;48.044;14.416;2022-12-18T04:11:01;41.53;;;18.60;;
38358;SDS011;42072;48.044;14.416;2022-12-18T04:13:37;43.78;;;19.45;;
38358;SDS011;42072;48.044;14.416;2022-12-18T04:16:05;41.80;;;18.80;;
38358;SDS011;42072;48.044;14.416;2022-12-18T04:18:33;39.78;;;17.85;;
38358;SDS011;42072;48.044;14.416;2022-12-18T04:21:01;39.03;;;18.27;;
38358;SDS011;42072;48.044;14.416;2022-12-18T04:23:28;41.47;;;18.35;;
38358;SDS011;42072;48.044;14.416;2022-12-18T04:25:56;43.42;;;18.73;;
38358;SDS011;42072;48.044;14.416;2022-12-18T04:28:23;42.95;;;18.15;;
38358;SDS011;42072;48.044;14.416;2022-12-18T04:30:50;40.00;;;18.08;;
38358;SDS011;42072;48.044;14.416;2022-12-18T04:33:17;41.78;;;18.65;;
38358;SDS011;42072;48.044;14.416;2022-12-18T04:35:45;38.75;;;18.10;;
38358;SDS011;42072;48.044;14.416;2022-12-18T04:38:12;43.67;;;18.63;;
38358;SDS011;42072;48.044;14.416;2022-12-18T04:40:39;40.55;;;18.42;;
38358;SDS011;42072;48.044;14.416;2022-12-18T04:43:07;43.80;;;19.30;;
38358;SDS011;42072;48.044;14.416;2022-12-18T04:45:34;51.05;;;19.80;;
38358;SDS011;42072;48.044;14.416;2022-12-18T04:48:02;49.45;;;20.77;;
38358;SDS011;42072;48.044;14.416;2022-12-18T04:50:30;49.22;;;20.52;;
38358;SDS011;42072;48.044;14.416;2022-12-18T04:53:02;53.08;;;20.77;;
38358;SDS011;42072;48.044;14.416;2022-12-18T04:55:29;55.47;;;22.02;;
38358;SDS011;42072;48.044;14.416;2022-12-18T04:57:57;55.40;;;22.15;;
38358;SDS011;42072;48.044;14.416;2022-12-18T05:00:24;57.90;;;22.45;;
38358;SDS011;42072;48.044;14.416;2022-12-18T05:02:51;50.83;;;21.73;;
38358;SDS011;42072;48.044;14.416;2022-12-18T05:05:18;53.78;;;22.80;;
38358;SDS011;42072;48.044;14.416;2022-12-18T05:07:46;61.00;;;23.10;;
38358;SDS011;42072;48.044;14.416;2022-12-18T05:10:13;52.92;;;21.65;;
38358;SDS011;42072;48.044;14.416;2022-12-18T05:12:40;60.40;;;23.00;;
38358;SDS011;42072;48.044;14.416;2022-12-18T05:15:30;61.08;;;23.73;;
38358;SDS011;42072;48.044;14.416;2022-12-18T05:17:59;63.78;;;23.30;;
38358;SDS011;42072;48.044;14.416;2022-12-18T05:20:27;58.63;;;21.23;;
38358;SDS011;42072;48.044;14.416;2022-12-18T05:22:55;54.30;;;21.80;;
38358;SDS011;42072;48.044;14.416;2022-12-18T05:25:23;49.47;;;20.92;;
38358;SDS011;42072;48.044;14.416;2022-12-18T05:27:51;54.63;;;19.75;;
38358;SDS011;42072;48.044;14.416;2022-12-18T05:30:18;43.80;;;18.10;;
38358;SDS011;42072;48.044;14.416;2022-12-18T05:32:45;55.72;;;20.27;;
38358;SDS011;42072;48.044;14.416;2022-12-18T05:35:12;63.60;;;20.92;;
38358;SDS011;42072;48.044;14.416;2022-12-18T05:37:39;51.45;;;20.25;;
38358;SDS011;42072;48.044;14.416;2022-12-18T05:40:09;48.30;;;20.25;;
38358;SDS011;42072;48.044;14.416;2022-12-18T05:42:37;73.50;;;20.60;;
38358;SDS011;42072;48.044;14.416;2022-12-18T05:45:05;54.45;;;20.15;;
38358;SDS011;42072;48.044;14.416;2022-12-18T05:47:32;55.85;;;21.17;;
38358;SDS011;42072;48.044;14.416;2022-12-18T05:50:00;42.33;;;19.17;;
38358;SDS011;42072;48.044;14.416;2022-12-18T05:52:28;52.50;;;19.15;;
38358;SDS011;42072;48.044;14.416;2022-12-18T05:54:55;50.30;;;20.60;;
38358;SDS011;42072;48.044;14.416;2022-12-18T05:57:22;48.25;;;19.30;;
38358;SDS011;42072;48.044;14.416;2022-12-18T05:59:49;48.20;;;19.17;;
38358;SDS011;42072;48.044;14.416;2022-12-18T06:02:16;50.03;;;18.00;;
38358;SDS011;42072;48.044;14.416;2022-12-18T06:04:44;39.25;;;18.65;;
38358;SDS011;42072;48.044;14.416;2022-12-18T06:07:11;46.22;;;18.45;;
38358;SDS011;42072;48.044;14.416;2022-12-18T06:09:38;48.53;;;17.80;;
38358;SDS011;42072;48.044;14.416;2022-12-18T06:12:05;40.83;;;15.93;;
38358;SDS011;42072;48.044;14.416;2022-12-18T06:14:33;48.33;;;19.17;;
38358;SDS011;42072;48.044;14.416;2022-12-18T06:17:00;18.23;;;9.57;;
38358;SDS011;42072;48.044;14.416;2022-12-18T06:19:27;44.50;;;16.20;;
38358;SDS011;42072;48.044;14.416;2022-12-18T06:21:54;42.83;;;15.68;;
38358;SDS011;42072;48.044;14.416;2022-12-18T06:24:24;42.90;;;13.45;;
38358;SDS011;42072;48.044;14.416;2022-12-18T06:26:51;39.65;;;16.45;;
38358;SDS011;42072;48.044;14.416;2022-12-18T06:29:18;31.95;;;13.93;;
38358;SDS011;42072;48.044;14.416;2022-12-18T06:31:45;43.90;;;16.15;;
38358;SDS011;42072;48.044;14.416;2022-12-18T06:34:13;42.78;;;18.38;;
38358;SDS011;42072;48.044;14.416;2022-12-18T06:36:40;60.33;;;18.90;;
38358;SDS011;42072;48.044;14.416;2022-12-18T06:39:07;7.13;;;4.68;;
38358;SDS011;42072;48.044;14.416;2022-12-18T06:41:34;62.47;;;20.73;;
38358;SDS011;42072;48.044;14.416;2022-12-18T06:44:02;47.38;;;19.27;;
38358;SDS011;42072;48.044;14.416;2022-12-18T06:46:29;42.28;;;17.50;;
38358;SDS011;42072;48.044;14.416;2022-12-18T06:48:56;43.10;;;18.98;;
38358;SDS011;42072;48.044;14.416;2022-12-18T06:51:24;50.47;;;20.10;;
38358;SDS011;42072;48.044;14.416;2022-12-18T06:53:51;54.63;;;20.25;;
38358;SDS011;42072;48.044;14.416;2022-12-18T06:56:19;47.85;;;19.67;;
38358;SDS011;42072;48.044;14.416;2022-12-18T06:58:46;48.33;;;19.77;;
38358;SDS011;42072;48.044;14.416;2022-12-18T07:01:13;52.15;;;21.40;;
38358;SDS011;42072;48.044;14.416;2022-12-18T07:03:40;50.40;;;18.70;;
38358;SDS011;42072;48.044;14.416;2022-12-18T07:06:13;45.00;;;18.30;;
38358;SDS011;42072;48.044;14.416;2022-12-18T07:08:42;47.28;;;20.75;;
38358;SDS011;42072;48.044;14.416;2022-12-18T07:11:10;48.83;;;20.40;;
38358;SDS011;42072;48.044;14.416;2022-12-18T07:13:37;47.45;;;19.30;;
38358;SDS011;42072;48.044;14.416;2022-12-18T07:16:23;54.47;;;20.33;;
38358;SDS011;42072;48.044;14.416;2022-12-18T07:18:52;44.15;;;18.73;;
38358;SDS011;42072;48.044;14.416;2022-12-18T07:21:19;36.88;;;18.17;;
38358;SDS011;42072;48.044;14.416;2022-12-18T07:23:47;47.05;;;19.38;;
38358;SDS011;42072;48.044;14.416;2022-12-18T07:26:15;46.42;;;19.58;;
38358;SDS011;42072;48.044;14.416;2022-12-18T07:28:45;42.35;;;19.10;;
38358;SDS011;42072;48.044;14.416;2022-12-18T07:31:14;45.80;;;19.65;;
38358;SDS011;42072;48.044;14.416;2022-12-18T07:33:43;45.15;;;18.23;;
38358;SDS011;42072;48.044;14.416;2022-12-18T07:36:11;44.63;;;18.83;;
38358;SDS011;42072;48.044;14.416;2022-12-18T07:38:39;48.88;;;20.70;;
38358;SDS011;42072;48.044;14.416;2022-12-18T07:41:10;51.40;;;21.25;;
38358;SDS011;42072;48.044;14.416;2022-12-18T07:43:40;36.42;;;14.40;;
38358;SDS011;42072;48.044;14.416;2022-12-18T07:46:09;52.13;;;20.88;;
38358;SDS011;42072;48.044;14.416;2022-12-18T07:48:39;44.85;;;18.40;;
38358;SDS011;42072;48.044;14.416;2022-12-18T07:51:14;44.45;;;19.15;;
38358;SDS011;42072;48.044;14.416;2022-12-18T07:53:43;42.30;;;17.40;;
38358;SDS011;42072;48.044;14.416;2022-12-18T07:56:11;48.17;;;20.58;;
38358;SDS011;42072;48.044;14.416;2022-12-18T07:58:57;52.45;;;19.20;;
38358;SDS011;42072;48.044;14.416;2022-12-18T08:01:25;42.28;;;18.13;;
38358;SDS011;42072;48.044;14.416;2022-12-18T08:03:53;50.67;;;18.70;;
38358;SDS011;42072;48.044;14.416;2022-12-18T08:06:20;40.40;;;18.27;;
38358;SDS011;42072;48.044;14.416;2022-12-18T08:08:53;42.00;;;17.40;;
38358;SDS011;42072;48.044;14.416;2022-12-18T08:11:23;44.42;;;17.63;;
38358;SDS011;42072;48.044;14.416;2022-12-18T08:13:52;36.80;;;16.65;;
38358;SDS011;42072;48.044;14.416;2022-12-18T08:16:19;36.00;;;15.93;;
38358;SDS011;42072;48.044;14.416;2022-12-18T08:18:48;40.10;;;16.98;;
38358;SDS011;42072;48.044;14.416;2022-12-18T08:23:46;30.77;;;15.20;;
38358;SDS011;42072;48.044;14.416;2022-12-18T08:26:16;39.92;;;18.13;;
38358;SDS011;42072;48.044;14.416;2022-12-18T08:28:44;42.28;;;17.60;;
38358;SDS011;42072;48.044;14.416;2022-12-18T08:31:11;43.28;;;18.05;;
38358;SDS011;42072;48.044;14.416;2022-12-18T08:33:40;38.92;;;17.30;;
38358;SDS011;42072;48.044;14.416;2022-12-18T08:36:09;54.83;;;20.38;;
38358;SDS011;42072;48.044;14.416;2022-12-18T08:38:37;41.35;;;16.52;;
38358;SDS011;42072;48.044;14.416;2022-12-18T08:41:06;40.22;;;16.50;;
38358;SDS011;42072;48.044;14.416;2022-12-18T08:43:37;42.97;;;17.33;;
38358;SDS011;42072;48.044;14.416;2022-12-18T08:46:24;40.85;;;16.30;;
38358;SDS011;42072;48.044;14.416;2022-12-18T08:48:53;37.40;;;15.18;;
38358;SDS011;42072;48.044;14.416;2022-12-18T08:51:22;38.70;;;15.55;;
38358;SDS011;42072;48.044;14.416;2022-12-18T08:53:49;32.50;;;15.57;;
38358;SDS011;42072;48.044;14.416;2022-12-18T08:56:16;33.28;;;14.32;;
38358;SDS011;42072;48.044;14.416;2022-12-18T08:58:43;36.40;;;15.75;;
38358;SDS011;42072;48.044;14.416;2022-12-18T09:01:11;32.85;;;14.68;;
38358;SDS011;42072;48.044;14.416;2022-12-18T09:03:40;34.72;;;14.15;;
38358;SDS011;42072;48.044;14.416;2022-12-18T09:06:08;32.58;;;15.85;;
38358;SDS011;42072;48.044;14.416;2022-12-18T09:08:35;31.10;;;15.23;;
38358;SDS011;42072;48.044;14.416;2022-12-18T09:11:10;35.03;;;15.25;;
38358;SDS011;42072;48.044;14.416;2022-12-18T09:13:58;36.17;;;15.63;;
38358;SDS011;42072;48.044;14.416;2022-12-18T09:16:27;34.75;;;15.88;;
38358;SDS011;42072;48.044;14.416;2022-12-18T09:18:58;37.15;;;16.75;;
38358;SDS011;42072;48.044;14.416;2022-12-18T09:21:27;36.22;;;15.40;;
38358;SDS011;42072;48.044;14.416;2022-12-18T09:23:58;36.22;;;16.23;;
38358;SDS011;42072;48.044;14.416;2022-12-18T09:26:25;33.38;;;15.65;;
38358;SDS011;42072;48.044;14.416;2022-12-18T09:28:53;34.60;;;15.55;;
38358;SDS011;42072;48.044;14.416;2022-12-18T09:31:21;31.25;;;15.40;;
38358;SDS011;42072;48.044;14.416;2022-12-18T09:33:50;35.65;;;17.00;;
38358;SDS011;42072;48.044;14.416;2022-12-18T09:36:18;40.75;;;18.90;;
38358;SDS011;42072;48.044;14.416;2022-12-18T09:38:47;38.97;;;17.05;;
38358;SDS011;42072;48.044;14.416;2022-12-18T09:43:48;43.40;;;19.55;;
38358;SDS011;42072;48.044;14.416;2022-12-18T09:46:20;40.13;;;18.08;;
38358;SDS011;42072;48.044;14.416;2022-12-18T09:48:55;45.10;;;19.77;;
38358;SDS011;42072;48.044;14.416;2022-12-18T09:51:33;54.03;;;21.90;;
38358;SDS011;42072;48.044;14.416;2022-12-18T09:54:06;48.33;;;21.13;;
38358;SDS011;42072;48.044;14.416;2022-12-18T09:56:40;49.22;;;20.77;;
38358;SDS011;42072;48.044;14.416;2022-12-18T09:59:26;37.78;;;17.73;;
38358;SDS011;42072;48.044;14.416;2022-12-18T10:02:12;42.05;;;18.98;;
38358;SDS011;42072;48.044;14.416;2022-12-18T10:04:42;45.58;;;19.15;;
38358;SDS011;42072;48.044;14.416;2022-12-18T10:07:16;42.92;;;17.60;;
38358;SDS011;42072;48.044;14.416;2022-12-18T10:12:46;35.72;;;16.40;;
38358;SDS011;42072;48.044;14.416;2022-12-18T10:15:36;33.83;;;15.80;;
38358;SDS011;42072;48.044;14.416;2022-12-18T10:20:59;35.53;;;16.42;;
38358;SDS011;42072;48.044;14.416;2022-12-18T10:23:49;29.90;;;15.38;;
38358;SDS011;42072;48.044;14.416;2022-12-18T10:26:28;32.28;;;15.63;;
38358;SDS011;42072;48.044;14.416;2022-12-18T10:28:58;35.47;;;16.85;;
38358;SDS011;42072;48.044;14.416;2022-12-18T10:31:31;33.10;;;16.35;;
38358;SDS011;42072;48.044;14.416;2022-12-18T10:33:58;35.47;;;16.80;;
38358;SDS011;42072;48.044;14.416;2022-12-18T10:36:25;30.88;;;15.18;;
38358;SDS011;42072;48.044;14.416;2022-12-18T10:38:53;33.75;;;16.55;;
38358;SDS011;42072;48.044;14.416;2022-12-18T10:43:49;36.25;;;17.85;;
38358;SDS011;42072;48.044;14.416;2022-12-18T10:46:48;34.70;;;16.23;;
38358;SDS011;42072;48.044;14.416;2022-12-18T10:49:35;32.60;;;16.10;;
38358;SDS011;42072;48.044;14.416;2022-12-18T10:52:05;34.28;;;16.27;;
38358;SDS011;42072;48.044;14.416;2022-12-18T10:55:03;30.27;;;15.15;;
38358;SDS011;42072;48.044;14.416;2022-12-18T10:57:35;30.40;;;15.18;;
38358;SDS011;42072;48.044;14.416;2022-12-18T11:02:48;31.17;;;14.95;;
38358;SDS011;42072;48.044;14.416;2022-12-18T11:05:32;31.48;;;14.70;;
38358;SDS011;42072;48.044;14.416;2022-12-18T11:08:00;29.20;;;14.55;;
38358;SDS011;42072;48.044;14.416;2022-12-18T11:13:19;28.15;;;14.65;;
38358;SDS011;42072;48.044;14.416;2022-12-18T11:15:48;31.20;;;14.73;;
38358;SDS011;42072;48.044;14.416;2022-12-18T11:20:50;21.63;;;9.77;;
38358;SDS011;42072;48.044;14.416;2022-12-18T11:23:24;23.77;;;11.27;;
38358;SDS011;42072;48.044;14.416;2022-12-18T11:25:59;18.73;;;9.02;;
38358;SDS011;42072;48.044;14.416;2022-12-18T11:36:51;17.45;;;8.75;;
38358;SDS011;42072;48.044;14.416;2022-12-18T11:45:16;32.05;;;15.35;;
38358;SDS011;42072;48.044;14.416;2022-12-18T11:48:03;27.02;;;12.30;;
38358;SDS011;42072;48.044;14.416;2022-12-18T11:50:58;31.23;;;15.38;;
38358;SDS011;42072;48.044;14.416;2022-12-18T11:53:28;32.58;;;16.00;;
38358;SDS011;42072;48.044;14.416;2022-12-18T11:56:02;25.33;;;12.88;;
38358;SDS011;42072;48.044;14.416;2022-12-18T12:21:28;15.00;;;7.78;;
38358;SDS011;42072;48.044;14.416;2022-12-18T12:29:56;35.22;;;15.88;;
38358;SDS011;42072;48.044;14.416;2022-12-18T12:32:35;15.68;;;8.23;;
38358;SDS011;42072;48.044;14.416;2022-12-18T12:40:50;35.13;;;16.30;;
38358;SDS011;42072;48.044;14.416;2022-12-18T12:43:42;21.85;;;10.88;;
38358;SDS011;42072;48.044;14.416;2022-12-18T12:46:17;30.20;;;13.70;;
38358;SDS011;42072;48.044;14.416;2022-12-18T12:48:58;38.53;;;16.50;;
38358;SDS011;42072;48.044;14.416;2022-12-18T12:51:37;23.20;;;9.25;;
38358;SDS011;42072;48.044;14.416;2022-12-18T12:54:15;24.90;;;11.93;;
38358;SDS011;42072;48.044;14.416;2022-12-18T12:56:51;30.40;;;13.93;;
38358;SDS011;42072;48.044;14.416;2022-12-18T12:59:46;28.95;;;13.68;;
38358;SDS011;42072;48.044;14.416;2022-12-18T13:05:09;34.05;;;17.15;;
38358;SDS011;42072;48.044;14.416;2022-12-18T13:07:50;40.78;;;17.20;;
38358;SDS011;42072;48.044;14.416;2022-12-18T13:10:35;19.50;;;9.30;;
38358;SDS011;42072;48.044;14.416;2022-12-18T13:13:06;14.23;;;7.38;;
38358;SDS011;42072;48.044;14.416;2022-12-18T13:15:50;34.60;;;11.57;;
38358;SDS011;42072;48.044;14.416;2022-12-18T13:18:33;29.35;;;12.65;;
38358;SDS011;42072;48.044;14.416;2022-12-18T13:21:12;38.25;;;16.42;;
38358;SDS011;42072;48.044;14.416;2022-12-18T13:23:54;41.47;;;17.42;;
38358;SDS011;42072;48.044;14.416;2022-12-18T13:28:54;28.23;;;13.77;;
38358;SDS011;42072;48.044;14.416;2022-12-18T13:36:55;28.70;;;14.00;;
38358;SDS011;42072;48.044;14.416;2022-12-18T13:39:41;35.92;;;15.55;;
38358;SDS011;42072;48.044;14.416;2022-12-18T13:44:56;39.00;;;16.90;;
38358;SDS011;42072;48.044;14.416;2022-12-18T13:50:00;41.05;;;19.58;;
38358;SDS011;42072;48.044;14.416;2022-12-18T13:52:36;37.00;;;17.23;;
38358;SDS011;42072;48.044;14.416;2022-12-18T13:55:07;40.65;;;17.60;;
38358;SDS011;42072;48.044;14.416;2022-12-18T13:57:42;40.90;;;19.75;;
38358;SDS011;42072;48.044;14.416;2022-12-18T14:00:27;28.02;;;13.57;;
38358;SDS011;42072;48.044;14.416;2022-12-18T14:02:56;29.17;;;12.50;;
38358;SDS011;42072;48.044;14.416;2022-12-18T14:05:32;31.20;;;13.20;;
38358;SDS011;42072;48.044;14.416;2022-12-18T14:08:05;18.70;;;8.02;;
38358;SDS011;42072;48.044;14.416;2022-12-18T14:10:47;25.83;;;10.57;;
38358;SDS011;42072;48.044;14.416;2022-12-18T14:13:23;31.27;;;13.52;;
38358;SDS011;42072;48.044;14.416;2022-12-18T14:15:54;22.27;;;9.73;;
38358;SDS011;42072;48.044;14.416;2022-12-18T14:18:29;43.67;;;19.25;;
38358;SDS011;42072;48.044;14.416;2022-12-18T14:21:02;36.05;;;17.08;;
38358;SDS011;42072;48.044;14.416;2022-12-18T14:23:34;41.45;;;19.45;;
38358;SDS011;42072;48.044;14.416;2022-12-18T14:26:03;20.92;;;9.15;;
38358;SDS011;42072;48.044;14.416;2022-12-18T14:28:46;31.73;;;14.98;;
38358;SDS011;42072;48.044;14.416;2022-12-18T14:31:18;22.67;;;10.38;;
38358;SDS011;42072;48.044;14.416;2022-12-18T14:33:51;44.45;;;19.52;;
38358;SDS011;42072;48.044;14.416;2022-12-18T14:36:23;25.88;;;11.27;;
38358;SDS011;42072;48.044;14.416;2022-12-18T14:38:53;52.80;;;21.95;;
38358;SDS011;42072;48.044;14.416;2022-12-18T14:41:22;27.55;;;13.35;;
38358;SDS011;42072;48.044;14.416;2022-12-18T14:43:51;43.67;;;19.90;;
38358;SDS011;42072;48.044;14.416;2022-12-18T14:49:27;22.60;;;9.73;;
38358;SDS011;42072;48.044;14.416;2022-12-18T14:51:57;32.08;;;13.80;;
38358;SDS011;42072;48.044;14.416;2022-12-18T14:54:28;51.40;;;21.65;;
38358;SDS011;42072;48.044;14.416;2022-12-18T14:57:05;48.75;;;19.83;;
38358;SDS011;42072;48.044;14.416;2022-12-18T14:59:50;32.45;;;14.98;;
38358;SDS011;42072;48.044;14.416;2022-12-18T15:02:22;22.70;;;11.38;;
38358;SDS011;42072;48.044;14.416;2022-12-18T15:04:59;38.95;;;13.68;;
38358;SDS011;42072;48.044;14.416;2022-12-18T15:07:47;15.05;;;7.93;;
38358;SDS011;42072;48.044;14.416;2022-12-18T15:10:19;33.67;;;15.00;;
38358;SDS011;42072;48.044;14.416;2022-12-18T15:23:24;52.97;;;21.10;;
38358;SDS011;42072;48.044;14.416;2022-12-18T15:28:25;22.35;;;9.27;;
38358;SDS011;42072;48.044;14.416;2022-12-18T15:33:44;29.38;;;12.82;;
38358;SDS011;42072;48.044;14.416;2022-12-18T15:36:27;23.45;;;11.43;;
38358;SDS011;42072;48.044;14.416;2022-12-18T15:38:57;31.75;;;12.98;;
38358;SDS011;42072;48.044;14.416;2022-12-18T15:41:32;42.17;;;17.85;;
38358;SDS011;42072;48.044;14.416;2022-12-18T15:44:02;50.80;;;21.40;;
38358;SDS011;42072;48.044;14.416;2022-12-18T15:46:42;52.75;;;21.42;;
38358;SDS011;42072;48.044;14.416;2022-12-18T15:49:09;48.65;;;20.20;;
38358;SDS011;42072;48.044;14.416;2022-12-18T15:51:38;36.28;;;14.32;;
38358;SDS011;42072;48.044;14.416;2022-12-18T15:54:09;40.28;;;18.42;;
38358;SDS011;42072;48.044;14.416;2022-12-18T15:56:40;55.25;;;23.05;;
38358;SDS011;42072;48.044;14.416;2022-12-18T15:59:26;56.42;;;23.50;;
38358;SDS011;42072;48.044;14.416;2022-12-18T16:01:56;40.00;;;15.07;;
38358;SDS011;42072;48.044;14.416;2022-12-18T16:04:25;47.38;;;20.08;;
38358;SDS011;42072;48.044;14.416;2022-12-18T16:06:53;56.63;;;22.60;;
38358;SDS011;42072;48.044;14.416;2022-12-18T16:09:40;55.35;;;22.50;;
38358;SDS011;42072;48.044;14.416;2022-12-18T16:12:18;29.52;;;13.95;;
38358;SDS011;42072;48.044;14.416;2022-12-18T16:14:52;47.25;;;21.77;;
38358;SDS011;42072;48.044;14.416;2022-12-18T16:17:21;27.63;;;11.40;;
38358;SDS011;42072;48.044;14.416;2022-12-18T16:19:49;48.97;;;21.65;;
38358;SDS011;42072;48.044;14.416;2022-12-18T16:22:25;58.47;;;24.45;;
38358;SDS011;42072;48.044;14.416;2022-12-18T16:24:55;53.78;;;22.73;;
38358;SDS011;42072;48.044;14.416;2022-12-18T16:27:24;52.42;;;21.20;;
38358;SDS011;42072;48.044;14.416;2022-12-18T16:29:53;52.03;;;22.40;;
38358;SDS011;42072;48.044;14.416;2022-12-18T16:32:22;56.83;;;22.15;;
38358;SDS011;42072;48.044;14.416;2022-12-18T16:34:50;38.10;;;14.80;;
38358;SDS011;42072;48.044;14.416;2022-12-18T16:37:18;53.80;;;21.67;;
38358;SDS011;42072;48.044;14.416;2022-12-18T16:39:46;32.33;;;14.18;;
38358;SDS011;42072;48.044;14.416;2022-12-18T16:42:15;49.20;;;21.67;;
38358;SDS011;42072;48.044;14.416;2022-12-18T16:44:48;52.17;;;23.52;;
38358;SDS011;42072;48.044;14.416;2022-12-18T16:47:16;54.20;;;21.58;;
38358;SDS011;42072;48.044;14.416;2022-12-18T16:49:45;32.25;;;11.65;;
38358;SDS011;42072;48.044;14.416;2022-12-18T16:52:15;49.65;;;20.17;;
38358;SDS011;42072;48.044;14.416;2022-12-18T16:54:43;48.65;;;20.60;;